Time;durP1;ratioP1;P1;durP2;ratioP2;P2;SDS_P1;SDS_P2;PMS_P1;PMS_P2;Temp;Humidity;BMP_temperature;BMP_pressure;BME280_temperature;BME280_humidity;BME280_pressure;Samples;Min_cycle;Max_cycle;Signal;HPM_P1;HPM_P2
2020/12/22 00:01:41;;;;;;;2.92;2.63;;;8.70;99.90;;;;;;4983142;28;20262;-75
2020/12/22 00:04:08;;;;;;;2.92;2.65;;;8.70;99.90;;;;;;4983856;28;20219;-74
2020/12/22 00:06:34;;;;;;;3.20;2.90;;;8.70;99.90;;;;;;4984197;28;20211;-74
2020/12/22 00:09:01;;;;;;;2.60;2.40;;;8.80;99.90;;;;;;4983542;28;20234;-74
2020/12/22 00:11:28;;;;;;;3.45;3.15;;;8.80;99.90;;;;;;4983450;28;20637;-74
2020/12/22 00:13:55;;;;;;;2.88;2.67;;;8.80;99.90;;;;;;4983271;28;20231;-74
2020/12/22 00:16:21;;;;;;;3.90;2.83;;;8.90;99.90;;;;;;4983346;28;20211;-74
2020/12/22 00:18:47;;;;;;;2.90;2.60;;;8.90;99.90;;;;;;4984853;28;20203;-74
2020/12/22 00:21:19;;;;;;;3.10;2.80;;;8.90;99.90;;;;;;4984792;28;20215;-73
2020/12/22 00:23:46;;;;;;;2.85;2.55;;;8.90;99.90;;;;;;4984854;28;20312;-75
2020/12/22 00:26:16;;;;;;;3.17;2.60;;;9.00;99.90;;;;;;4984658;28;20227;-75
2020/12/22 00:28:43;;;;;;;3.03;2.33;;;9.00;99.90;;;;;;4985307;28;20235;-74
2020/12/22 00:31:10;;;;;;;3.22;2.25;;;9.00;99.90;;;;;;4984609;28;20217;-74
2020/12/22 00:33:36;;;;;;;2.40;2.20;;;9.00;99.90;;;;;;4983242;28;20284;-75
2020/12/22 00:36:06;;;;;;;3.05;2.75;;;9.00;99.90;;;;;;4983719;28;20210;-75
2020/12/22 00:38:32;;;;;;;2.75;2.45;;;9.00;99.90;;;;;;4983603;28;20226;-75
2020/12/22 00:40:58;;;;;;;2.60;2.40;;;9.10;99.90;;;;;;4983966;28;20211;-75
2020/12/22 00:43:25;;;;;;;2.55;2.35;;;9.10;99.90;;;;;;4984370;28;20223;-74
2020/12/22 00:45:52;;;;;;;2.70;1.90;;;9.10;99.90;;;;;;5156034;23;20254;-78
2020/12/22 00:48:18;;;;;;;2.28;2.03;;;9.10;99.90;;;;;;4990559;28;20572;-78
2020/12/22 00:50:44;;;;;;;2.38;1.95;;;9.20;99.90;;;;;;4998118;28;20539;-77
2020/12/22 00:53:10;;;;;;;2.30;2.10;;;9.20;99.90;;;;;;5010031;28;20211;-77
2020/12/22 00:55:37;;;;;;;3.17;1.83;;;9.20;99.90;;;;;;4976794;28;20285;-77
2020/12/22 00:58:03;;;;;;;1.70;1.60;;;9.20;99.90;;;;;;4994588;28;20191;-77
2020/12/22 01:00:29;;;;;;;1.95;1.75;;;9.30;99.90;;;;;;4978123;28;20221;-77
2020/12/22 01:02:56;;;;;;;2.63;2.05;;;9.30;99.90;;;;;;4991171;28;20211;-77
2020/12/22 01:05:22;;;;;;;1.75;1.30;;;9.40;99.90;;;;;;4992823;28;20213;-77
2020/12/22 01:07:49;;;;;;;1.60;1.50;;;9.40;99.90;;;;;;4979473;28;20202;-77
2020/12/22 01:10:15;;;;;;;2.00;1.50;;;9.40;99.90;;;;;;4980181;28;20725;-77
2020/12/22 01:12:43;;;;;;;2.30;1.65;;;9.40;99.90;;;;;;4985106;28;20239;-77
2020/12/22 01:15:09;;;;;;;1.55;1.20;;;9.40;99.90;;;;;;4989906;28;20224;-77
2020/12/22 01:17:35;;;;;;;2.80;1.55;;;9.40;99.90;;;;;;4986214;28;20574;-77
2020/12/22 01:20:02;;;;;;;3.65;1.38;;;9.50;99.90;;;;;;4984466;28;20196;-77
2020/12/22 01:22:28;;;;;;;2.00;1.60;;;9.50;99.90;;;;;;4980702;28;20203;-77
2020/12/22 01:24:55;;;;;;;2.45;1.35;;;9.50;99.90;;;;;;4994062;28;20693;-77
2020/12/22 01:27:21;;;;;;;2.47;1.50;;;9.60;99.90;;;;;;4997876;28;20205;-78
2020/12/22 01:29:47;;;;;;;1.60;1.50;;;9.60;99.90;;;;;;5011044;28;20202;-77
2020/12/22 01:32:13;;;;;;;1.92;1.60;;;9.60;99.90;;;;;;5010710;28;20206;-77
2020/12/22 01:34:39;;;;;;;1.50;1.40;;;9.60;99.90;;;;;;5010603;28;20226;-77
2020/12/22 01:37:11;;;;;;;1.90;1.33;;;9.60;99.90;;;;;;5012068;28;20209;-77
2020/12/22 01:39:38;;;;;;;2.30;1.70;;;9.60;99.90;;;;;;5010989;28;20210;-77
2020/12/22 01:42:07;;;;;;;1.42;1.23;;;9.60;99.90;;;;;;5012098;28;20253;-78
2020/12/22 01:44:33;;;;;;;2.63;1.60;;;9.50;99.90;;;;;;5007264;28;20249;-78
2020/12/22 01:46:59;;;;;;;2.90;1.30;;;9.50;99.90;;;;;;5011306;28;20225;-78
2020/12/22 01:49:28;;;;;;;1.20;1.00;;;9.50;99.90;;;;;;4994648;28;20199;-78
2020/12/22 01:51:56;;;;;;;1.40;1.00;;;9.50;99.90;;;;;;4991107;28;20226;-78
2020/12/22 01:54:26;;;;;;;1.10;0.90;;;9.60;99.90;;;;;;4992481;28;20223;-78
2020/12/22 01:56:52;;;;;;;1.10;1.00;;;9.70;99.90;;;;;;4992559;28;20214;-78
2020/12/22 01:59:19;;;;;;;2.35;1.00;;;9.70;99.90;;;;;;4991834;28;20621;-78
2020/12/22 02:01:46;;;;;;;1.00;0.80;;;9.70;99.90;;;;;;4990844;28;20207;-78
2020/12/22 02:04:12;;;;;;;1.00;0.90;;;9.80;99.90;;;;;;4991200;28;20226;-78
2020/12/22 02:06:39;;;;;;;0.82;0.82;;;9.80;99.90;;;;;;4991861;28;20218;-78
2020/12/22 02:09:08;;;;;;;1.00;0.80;;;9.80;99.90;;;;;;4991588;28;20595;-78
2020/12/22 02:11:38;;;;;;;1.00;0.80;;;9.90;99.90;;;;;;4990932;28;20203;-77
2020/12/22 02:14:05;;;;;;;1.30;0.90;;;9.80;99.90;;;;;;4991639;28;20231;-78
2020/12/22 02:16:32;;;;;;;1.23;0.93;;;9.90;99.90;;;;;;4992165;28;20198;-77
2020/12/22 02:18:58;;;;;;;1.15;0.85;;;9.90;99.90;;;;;;4992222;28;20269;-78
2020/12/22 02:21:26;;;;;;;1.00;0.90;;;10.00;99.90;;;;;;4992466;28;20203;-77
2020/12/22 02:23:52;;;;;;;0.93;0.80;;;10.00;99.90;;;;;;4992232;28;20223;-78
2020/12/22 02:26:19;;;;;;;0.90;0.80;;;10.00;99.90;;;;;;4992076;28;20230;-78
2020/12/22 02:28:45;;;;;;;0.90;0.70;;;10.10;99.90;;;;;;4990966;28;20616;-77
2020/12/22 02:31:12;;;;;;;0.80;0.70;;;10.10;99.90;;;;;;4991612;28;20209;-78
2020/12/22 02:33:39;;;;;;;1.10;0.90;;;10.10;99.90;;;;;;5001930;28;20226;-78
2020/12/22 02:36:08;;;;;;;0.90;0.80;;;10.20;99.90;;;;;;5010168;28;20276;-77
2020/12/22 02:38:35;;;;;;;0.80;0.70;;;10.20;99.90;;;;;;4999943;28;20211;-77
2020/12/22 02:41:01;;;;;;;0.90;0.80;;;10.30;99.90;;;;;;4990158;28;20203;-77
2020/12/22 02:43:28;;;;;;;1.00;0.80;;;10.30;99.90;;;;;;4989559;28;20231;-77
2020/12/22 02:45:54;;;;;;;0.80;0.70;;;10.30;99.90;;;;;;4990788;28;20215;-77
2020/12/22 02:48:20;;;;;;;0.88;0.80;;;10.40;99.90;;;;;;4990378;28;20211;-77
2020/12/22 02:50:46;;;;;;;0.90;0.75;;;10.40;99.90;;;;;;4990989;28;20261;-76
2020/12/22 02:53:13;;;;;;;0.93;0.80;;;10.40;99.90;;;;;;4990541;28;20227;-77
2020/12/22 02:55:41;;;;;;;1.27;0.70;;;10.40;99.90;;;;;;4990230;28;20226;-77
2020/12/22 02:58:07;;;;;;;1.13;0.82;;;10.40;99.90;;;;;;4990550;28;20203;-77
2020/12/22 03:00:35;;;;;;;0.80;0.80;;;10.40;99.90;;;;;;4989543;28;20218;-77
2020/12/22 03:03:01;;;;;;;3.95;0.80;;;10.40;99.90;;;;;;4989831;28;20219;-77
2020/12/22 03:05:27;;;;;;;0.80;0.70;;;10.40;99.90;;;;;;4989980;28;20195;-77
2020/12/22 03:07:54;;;;;;;2.38;1.00;;;10.40;99.90;;;;;;4995717;28;20221;-77
2020/12/22 03:10:20;;;;;;;0.80;0.70;;;10.40;99.90;;;;;;5005108;28;20191;-77
2020/12/22 03:12:48;;;;;;;0.95;0.70;;;10.40;99.90;;;;;;5007479;28;20230;-77
2020/12/22 03:15:14;;;;;;;0.90;0.70;;;10.50;99.90;;;;;;5009435;28;20237;-77
2020/12/22 03:17:41;;;;;;;0.95;0.80;;;10.50;99.90;;;;;;5008848;28;20222;-76
2020/12/22 03:20:09;;;;;;;0.90;0.70;;;10.50;99.90;;;;;;5009831;28;20574;-77
2020/12/22 03:22:36;;;;;;;1.13;0.80;;;10.50;99.90;;;;;;5008510;28;20227;-76
2020/12/22 03:25:04;;;;;;;1.25;0.90;;;10.50;99.90;;;;;;5008900;28;20208;-76
2020/12/22 03:27:30;;;;;;;0.80;0.70;;;10.50;99.90;;;;;;5009177;28;20210;-77
2020/12/22 03:29:58;;;;;;;2.13;0.90;;;10.50;99.90;;;;;;5009277;28;20206;-77
2020/12/22 03:32:24;;;;;;;1.00;0.80;;;10.50;99.90;;;;;;5008481;28;20249;-77
2020/12/22 03:34:51;;;;;;;0.80;0.70;;;10.40;99.90;;;;;;5007615;28;20222;-77
2020/12/22 03:37:20;;;;;;;0.90;0.80;;;10.50;99.90;;;;;;5009186;28;20206;-77
2020/12/22 03:39:48;;;;;;;0.80;0.60;;;10.50;99.90;;;;;;5008784;28;20205;-77
2020/12/22 03:42:14;;;;;;;1.83;0.73;;;10.50;99.90;;;;;;5008430;28;20202;-77
2020/12/22 03:44:41;;;;;;;0.80;0.70;;;10.60;99.90;;;;;;5008702;28;20206;-76
2020/12/22 03:47:08;;;;;;;2.45;0.90;;;10.60;99.90;;;;;;5008917;28;20210;-77
2020/12/22 03:49:35;;;;;;;2.10;1.48;;;10.60;99.90;;;;;;5008875;28;20217;-77
2020/12/22 03:52:02;;;;;;;0.80;0.70;;;10.60;99.90;;;;;;5008754;28;20238;-77
2020/12/22 03:54:28;;;;;;;1.95;0.70;;;10.60;99.90;;;;;;5008746;28;20227;-77
2020/12/22 03:56:54;;;;;;;0.80;0.70;;;10.60;99.90;;;;;;5009358;28;20213;-77
2020/12/22 03:59:20;;;;;;;0.80;0.70;;;10.60;99.90;;;;;;5009300;28;20217;-77
2020/12/22 04:01:49;;;;;;;1.17;0.73;;;10.60;99.90;;;;;;5008703;28;20202;-77
2020/12/22 04:04:19;;;;;;;1.00;0.90;;;10.70;99.90;;;;;;5009322;28;20225;-77
2020/12/22 04:06:45;;;;;;;0.80;0.70;;;10.70;99.90;;;;;;5009005;28;20309;-76
2020/12/22 04:09:11;;;;;;;0.85;0.70;;;10.60;99.90;;;;;;5009153;28;20213;-76
2020/12/22 04:11:39;;;;;;;1.05;0.80;;;10.60;99.90;;;;;;5008720;28;20260;-77
2020/12/22 04:14:06;;;;;;;0.80;0.70;;;10.60;99.90;;;;;;5009084;28;20597;-76
2020/12/22 04:16:32;;;;;;;0.88;0.80;;;10.60;99.90;;;;;;5008593;28;20297;-77
2020/12/22 04:18:59;;;;;;;1.02;0.90;;;10.50;99.90;;;;;;5009381;28;20213;-77
2020/12/22 04:21:26;;;;;;;1.55;0.70;;;10.40;99.90;;;;;;5009022;28;20210;-77
2020/12/22 04:23:54;;;;;;;0.80;0.70;;;10.40;99.90;;;;;;5009166;28;20214;-77
2020/12/22 04:26:21;;;;;;;0.90;0.73;;;10.50;99.90;;;;;;5009623;28;20203;-77
2020/12/22 04:28:47;;;;;;;1.45;0.80;;;10.50;99.90;;;;;;5011850;28;20206;-77
2020/12/22 04:31:14;;;;;;;0.90;0.80;;;10.50;99.90;;;;;;5013230;28;20473;-77
2020/12/22 04:33:40;;;;;;;1.33;1.00;;;10.50;99.90;;;;;;5012345;28;20757;-76
2020/12/22 04:36:06;;;;;;;1.17;0.70;;;10.60;99.90;;;;;;5011980;28;20222;-77
2020/12/22 04:38:34;;;;;;;0.90;0.70;;;10.60;99.90;;;;;;4999718;28;20205;-77
2020/12/22 04:41:01;;;;;;;0.90;0.80;;;10.70;99.90;;;;;;4999170;28;20278;-77
2020/12/22 04:43:28;;;;;;;0.70;0.70;;;10.70;99.90;;;;;;4996764;28;20654;-77
2020/12/22 04:46:00;;;;;;;1.30;0.70;;;10.70;99.90;;;;;;4996017;28;20210;-75
2020/12/22 04:48:28;;;;;;;0.80;0.70;;;10.70;99.90;;;;;;5012550;28;20252;-76
2020/12/22 04:50:54;;;;;;;0.80;0.70;;;10.70;99.90;;;;;;5009209;28;20199;-77
2020/12/22 04:53:21;;;;;;;0.90;0.70;;;10.70;99.90;;;;;;4992245;28;20227;-77
2020/12/22 04:55:48;;;;;;;0.90;0.70;;;10.70;99.90;;;;;;4994008;28;20226;-75
2020/12/22 04:58:15;;;;;;;0.98;0.77;;;10.70;99.90;;;;;;5001783;28;20567;-76
2020/12/22 05:00:41;;;;;;;0.80;0.70;;;10.70;99.90;;;;;;5011781;28;20214;-76
2020/12/22 05:03:07;;;;;;;1.25;0.85;;;10.70;99.90;;;;;;5002784;28;20215;-76
2020/12/22 05:05:33;;;;;;;1.00;0.80;;;10.70;99.90;;;;;;4993525;28;20199;-77
2020/12/22 05:07:59;;;;;;;1.05;0.80;;;10.60;99.90;;;;;;4991839;28;20211;-75
2020/12/22 05:10:26;;;;;;;0.80;0.70;;;10.60;99.90;;;;;;4990009;28;20226;-76
2020/12/22 05:12:53;;;;;;;1.08;0.80;;;10.60;99.90;;;;;;4984959;28;20228;-77
2020/12/22 05:15:19;;;;;;;2.78;0.88;;;10.60;99.90;;;;;;4974678;28;20230;-76
2020/12/22 05:17:48;;;;;;;0.80;0.70;;;10.60;99.90;;;;;;4972487;28;20204;-76
2020/12/22 05:20:20;;;;;;;0.90;0.80;;;10.60;99.90;;;;;;4972221;28;20226;-76
2020/12/22 05:22:47;;;;;;;0.98;0.65;;;10.60;99.90;;;;;;4971901;28;20230;-75
2020/12/22 05:25:17;;;;;;;0.90;0.70;;;10.60;99.90;;;;;;4972395;28;20311;-75
2020/12/22 05:27:44;;;;;;;0.80;0.70;;;10.60;99.90;;;;;;4971830;28;20219;-76
2020/12/22 05:30:13;;;;;;;1.00;0.70;;;10.60;99.90;;;;;;4990202;28;20215;-76
2020/12/22 05:32:42;;;;;;;1.20;0.85;;;10.70;99.90;;;;;;4988739;28;20223;-76
2020/12/22 05:35:11;;;;;;;0.90;0.70;;;10.60;99.90;;;;;;4972034;28;20232;-75
2020/12/22 05:37:40;;;;;;;0.88;0.80;;;10.60;99.90;;;;;;4970574;28;20207;-76
2020/12/22 05:40:09;;;;;;;0.70;0.60;;;10.70;99.90;;;;;;4970419;28;20204;-76
2020/12/22 05:42:36;;;;;;;0.73;0.68;;;10.80;99.90;;;;;;4984163;28;20249;-76
2020/12/22 05:45:04;;;;;;;0.75;0.68;;;10.80;99.90;;;;;;4990102;28;20206;-75
2020/12/22 05:47:32;;;;;;;0.73;0.68;;;10.80;99.90;;;;;;4989817;28;20207;-76
2020/12/22 05:49:59;;;;;;;1.10;0.82;;;10.80;99.90;;;;;;4990819;28;20211;-76
2020/12/22 05:52:27;;;;;;;0.70;0.60;;;10.80;99.90;;;;;;4990316;28;20210;-75
2020/12/22 05:54:54;;;;;;;0.70;0.70;;;10.80;99.90;;;;;;4996724;28;20695;-76
2020/12/22 05:57:21;;;;;;;0.70;0.60;;;10.80;99.90;;;;;;5003211;28;20209;-76
2020/12/22 05:59:48;;;;;;;0.80;0.60;;;10.80;99.90;;;;;;5001592;28;20214;-76
2020/12/22 06:02:28;;;;;;;0.70;0.60;;;10.80;99.90;;;;;;5003586;28;20233;-76
2020/12/22 06:04:56;;;;;;;2.45;0.82;;;10.90;99.90;;;;;;5003754;28;20207;-76
2020/12/22 06:07:23;;;;;;;0.73;0.70;;;10.90;99.90;;;;;;5003009;28;20203;-75
2020/12/22 06:09:49;;;;;;;0.80;0.70;;;11.00;99.90;;;;;;5003524;28;20244;-76
2020/12/22 06:12:17;;;;;;;0.80;0.70;;;11.00;99.90;;;;;;5003269;28;20198;-76
2020/12/22 06:14:46;;;;;;;0.80;0.70;;;11.00;99.90;;;;;;5002175;28;20917;-76
2020/12/22 06:17:13;;;;;;;0.90;0.70;;;11.00;99.90;;;;;;5005581;28;20569;-76
2020/12/22 06:19:41;;;;;;;1.13;0.80;;;11.10;99.90;;;;;;5009245;28;20221;-76
2020/12/22 06:22:10;;;;;;;1.00;0.70;;;11.10;99.90;;;;;;5009684;28;20213;-76
2020/12/22 06:24:36;;;;;;;0.80;0.70;;;11.10;99.90;;;;;;5009670;28;20218;-76
2020/12/22 06:27:04;;;;;;;1.63;0.75;;;11.10;99.90;;;;;;5009843;28;20217;-75
2020/12/22 06:29:30;;;;;;;0.90;0.70;;;11.10;99.90;;;;;;5009614;28;20213;-76
2020/12/22 06:32:21;;;;;;;0.80;0.80;;;11.10;99.90;;;;;;5009285;28;20203;-75
2020/12/22 06:34:47;;;;;;;1.27;1.00;;;11.10;99.90;;;;;;5009755;28;20238;-76
2020/12/22 06:37:14;;;;;;;0.80;0.70;;;11.20;99.90;;;;;;5009622;28;20700;-76
2020/12/22 06:39:42;;;;;;;1.55;0.70;;;11.20;99.90;;;;;;5009292;28;20207;-76
2020/12/22 06:42:09;;;;;;;0.90;0.80;;;11.10;99.90;;;;;;5009443;28;20215;-76
2020/12/22 06:44:36;;;;;;;0.90;0.80;;;11.10;99.90;;;;;;4991803;28;20219;-76
2020/12/22 06:49:50;;;;;;;0.77;0.68;;;11.20;99.90;;;;;;4997525;28;20211;-76
2020/12/22 06:52:37;;;;;;;0.80;0.70;;;11.20;99.90;;;;;;5009532;28;20202;-77
2020/12/22 06:55:05;;;;;;;0.80;0.80;;;11.20;99.90;;;;;;5008923;28;20238;-77
2020/12/22 06:57:46;;;;;;;0.90;0.80;;;11.20;99.90;;;;;;4989884;28;20207;-77
2020/12/22 07:00:36;;;;;;;0.80;0.70;;;11.30;99.90;;;;;;4989933;28;20202;-77
2020/12/22 07:03:13;;;;;;;1.20;0.80;;;11.30;99.90;;;;;;4989317;28;20258;-77
2020/12/22 07:05:41;;;;;;;1.10;0.80;;;11.30;99.90;;;;;;4989555;28;20678;-77
2020/12/22 07:08:09;;;;;;;1.10;0.70;;;11.30;99.90;;;;;;4989115;28;20256;-77
2020/12/22 07:10:40;;;;;;;0.80;0.70;;;11.40;99.90;;;;;;4989758;28;20586;-79
2020/12/22 07:13:08;;;;;;;0.70;0.68;;;11.40;99.90;;;;;;4989490;28;20234;-76
2020/12/22 07:15:36;;;;;;;2.72;0.93;;;11.40;99.90;;;;;;4989376;28;20254;-77
2020/12/22 07:18:09;;;;;;;1.15;0.70;;;11.40;99.90;;;;;;4989603;28;20203;-77
2020/12/22 07:20:36;;;;;;;0.93;0.70;;;11.50;99.90;;;;;;4988777;28;20249;-77
2020/12/22 07:23:03;;;;;;;2.17;0.93;;;11.50;99.90;;;;;;4989504;28;20230;-77
2020/12/22 07:25:31;;;;;;;0.90;0.80;;;11.50;99.90;;;;;;4988976;28;20199;-77
2020/12/22 07:27:57;;;;;;;2.45;0.73;;;11.50;99.90;;;;;;4989787;28;20591;-77
2020/12/22 07:30:26;;;;;;;0.90;0.80;;;11.60;99.90;;;;;;4989077;28;20262;-76
2020/12/22 07:32:53;;;;;;;0.80;0.70;;;11.60;99.90;;;;;;4988684;28;20231;-76
2020/12/22 07:35:19;;;;;;;1.20;0.80;;;11.60;99.90;;;;;;4989613;28;20231;-77
2020/12/22 07:37:45;;;;;;;0.90;0.75;;;11.70;99.90;;;;;;4988902;28;20210;-76
2020/12/22 07:40:12;;;;;;;0.90;0.70;;;11.70;99.90;;;;;;4988959;28;20230;-76
2020/12/22 07:42:39;;;;;;;1.70;0.80;;;11.70;99.90;;;;;;4987508;28;20701;-77
2020/12/22 07:45:07;;;;;;;0.90;0.80;;;11.70;99.90;;;;;;4989178;28;20701;-76
2020/12/22 07:47:33;;;;;;;0.90;0.70;;;11.70;99.90;;;;;;4988737;28;20210;-76
2020/12/22 07:50:13;;;;;;;1.95;0.90;;;11.80;99.90;;;;;;4988742;28;20210;-76
2020/12/22 07:52:39;;;;;;;0.80;0.70;;;11.80;99.90;;;;;;4988230;28;20226;-76
2020/12/22 07:55:07;;;;;;;0.80;0.70;;;11.80;99.90;;;;;;4989067;28;20571;-76
2020/12/22 07:57:36;;;;;;;1.65;0.90;;;11.80;99.90;;;;;;4988618;28;20305;-76
2020/12/22 08:00:05;;;;;;;1.30;0.82;;;11.80;99.90;;;;;;4989092;28;20299;-75
2020/12/22 08:02:31;;;;;;;0.98;0.88;;;11.80;99.90;;;;;;4989633;28;20214;-76
2020/12/22 08:04:57;;;;;;;0.90;0.77;;;11.90;99.90;;;;;;4993430;28;20363;-76
2020/12/22 08:07:23;;;;;;;0.90;0.80;;;11.90;99.90;;;;;;4992506;28;20199;-76
2020/12/22 08:09:50;;;;;;;0.80;0.80;;;11.90;99.90;;;;;;4992601;28;20207;-76
2020/12/22 08:12:17;;;;;;;0.80;0.60;;;11.90;99.90;;;;;;4992469;28;20203;-77
2020/12/22 08:14:44;;;;;;;0.80;0.70;;;11.90;99.90;;;;;;4992448;28;20231;-77
2020/12/22 08:17:16;;;;;;;1.08;0.82;;;11.90;99.90;;;;;;4992903;28;20769;-77
2020/12/22 08:19:43;;;;;;;1.05;0.77;;;11.90;99.90;;;;;;4992131;28;20670;-77
2020/12/22 08:22:14;;;;;;;0.70;0.60;;;11.90;99.90;;;;;;4992030;28;20770;-76
2020/12/22 08:24:41;;;;;;;0.85;0.70;;;11.90;99.90;;;;;;4992054;28;20206;-76
2020/12/22 08:27:07;;;;;;;0.80;0.70;;;12.00;99.90;;;;;;4992652;28;20209;-77
2020/12/22 08:29:37;;;;;;;0.82;0.75;;;12.00;99.90;;;;;;4991487;28;20218;-75
2020/12/22 08:32:03;;;;;;;1.13;0.80;;;12.00;99.90;;;;;;4992081;28;20640;-75
2020/12/22 08:34:30;;;;;;;0.77;0.70;;;12.00;99.90;;;;;;4991063;28;20799;-75
2020/12/22 08:36:57;;;;;;;0.95;0.70;;;12.00;99.90;;;;;;4992545;28;20203;-76
2020/12/22 08:39:26;;;;;;;2.35;0.80;;;12.00;99.90;;;;;;4992402;28;20290;-77
2020/12/22 08:41:53;;;;;;;1.73;0.80;;;12.00;99.90;;;;;;4991549;28;20256;-77
2020/12/22 08:44:21;;;;;;;1.10;0.90;;;12.00;99.90;;;;;;4992371;28;20234;-77
2020/12/22 08:46:47;;;;;;;0.80;0.70;;;12.00;99.90;;;;;;4990830;28;20707;-76
2020/12/22 08:49:16;;;;;;;0.77;0.68;;;11.90;99.90;;;;;;4991874;28;20563;-76
2020/12/22 08:51:44;;;;;;;1.00;0.85;;;12.00;99.90;;;;;;4991273;28;20690;-76
2020/12/22 08:54:11;;;;;;;0.90;0.70;;;12.00;99.90;;;;;;4992001;28;20690;-76
2020/12/22 08:56:37;;;;;;;1.00;0.80;;;12.00;99.90;;;;;;4991602;28;20219;-76
2020/12/22 08:59:05;;;;;;;1.05;0.80;;;12.10;99.90;;;;;;4991627;28;20206;-76
2020/12/22 09:01:39;;;;;;;1.05;0.80;;;12.10;99.90;;;;;;4991313;28;20265;-76
2020/12/22 09:04:06;;;;;;;0.90;0.70;;;12.10;99.90;;;;;;4992256;28;20690;-76
2020/12/22 09:06:34;;;;;;;1.00;0.70;;;12.20;99.90;;;;;;4991367;28;20199;-76
2020/12/22 09:09:03;;;;;;;0.90;0.70;;;12.20;99.90;;;;;;4992541;28;20560;-76
2020/12/22 09:11:29;;;;;;;0.90;0.80;;;12.20;99.90;;;;;;4991434;28;20294;-76
2020/12/22 09:14:06;;;;;;;1.00;0.77;;;12.20;99.90;;;;;;4991169;28;20345;-76
2020/12/22 09:17:00;;;;;;;1.13;0.75;;;12.20;99.90;;;;;;4991616;28;20223;-76
2020/12/22 09:19:30;;;;;;;0.98;0.70;;;12.20;99.90;;;;;;4991469;28;20207;-76
2020/12/22 09:22:00;;;;;;;0.80;0.70;;;12.10;99.90;;;;;;4991578;28;20203;-76
2020/12/22 09:24:27;;;;;;;1.10;0.90;;;12.00;99.90;;;;;;4990554;28;20274;-76
2020/12/22 09:27:05;;;;;;;0.80;0.70;;;12.00;99.90;;;;;;4991592;28;20203;-76
2020/12/22 09:29:32;;;;;;;1.98;0.70;;;12.00;99.90;;;;;;4990848;28;20288;-76
2020/12/22 09:31:59;;;;;;;0.90;0.80;;;11.90;99.90;;;;;;4991198;28;20218;-77
2020/12/22 09:34:27;;;;;;;0.90;0.70;;;11.90;99.90;;;;;;4991542;28;20314;-76
2020/12/22 09:36:55;;;;;;;1.05;0.70;;;11.90;99.90;;;;;;4991739;28;20261;-76
2020/12/22 09:39:22;;;;;;;0.80;0.70;;;12.00;99.90;;;;;;4992351;28;20218;-78
2020/12/22 09:41:50;;;;;;;1.45;0.70;;;11.90;99.90;;;;;;4990812;28;20210;-77
2020/12/22 09:44:16;;;;;;;0.93;0.85;;;11.80;99.90;;;;;;4992145;28;20223;-77
2020/12/22 09:46:42;;;;;;;0.80;0.70;;;11.80;99.90;;;;;;4991432;28;20211;-75
2020/12/22 09:49:08;;;;;;;0.80;0.80;;;11.80;99.90;;;;;;4990846;28;20214;-76
2020/12/22 09:51:35;;;;;;;0.90;0.80;;;11.80;99.90;;;;;;4990488;28;20218;-72
2020/12/22 09:54:01;;;;;;;1.15;1.00;;;11.90;99.90;;;;;;4990980;28;20737;-76
2020/12/22 09:56:30;;;;;;;1.10;0.80;;;11.90;99.90;;;;;;4990703;28;20235;-76
2020/12/22 09:58:57;;;;;;;0.80;0.70;;;12.00;99.90;;;;;;4990370;28;20207;-76
2020/12/22 10:01:24;;;;;;;0.90;0.73;;;12.10;99.90;;;;;;4990898;28;20206;-76
2020/12/22 10:03:51;;;;;;;1.15;0.80;;;12.10;99.90;;;;;;4991081;28;20604;-75
2020/12/22 10:06:18;;;;;;;1.20;0.80;;;12.10;99.90;;;;;;4991198;28;20290;-75
2020/12/22 10:08:45;;;;;;;1.25;1.02;;;12.20;99.90;;;;;;4990660;28;20211;-77
2020/12/22 10:11:11;;;;;;;0.90;0.80;;;12.30;99.90;;;;;;4990986;28;20254;-76
2020/12/22 10:13:38;;;;;;;1.20;0.90;;;12.40;99.90;;;;;;4992932;28;20609;-76
2020/12/22 10:16:09;;;;;;;1.00;0.80;;;12.50;99.90;;;;;;4990696;28;20254;-76
2020/12/22 10:18:36;;;;;;;1.25;0.70;;;12.50;99.90;;;;;;4989861;28;20322;-76
2020/12/22 10:21:07;;;;;;;1.10;0.80;;;12.50;99.90;;;;;;4990645;28;20582;-76
2020/12/22 10:23:33;;;;;;;1.20;1.00;;;12.50;99.90;;;;;;4989673;28;20256;-76
2020/12/22 10:26:02;;;;;;;0.98;0.85;;;12.50;99.90;;;;;;4989175;28;20233;-75
2020/12/22 10:28:28;;;;;;;0.80;0.70;;;12.60;99.90;;;;;;4990184;28;20671;-75
2020/12/22 10:30:55;;;;;;;0.90;0.80;;;12.70;99.90;;;;;;4991117;28;20254;-74
2020/12/22 10:33:23;;;;;;;1.25;0.70;;;12.90;99.90;;;;;;4989929;28;20227;-75
2020/12/22 10:35:49;;;;;;;6.78;1.10;;;13.00;99.90;;;;;;4990005;28;20249;-75
2020/12/22 10:38:16;;;;;;;1.10;0.80;;;13.00;99.90;;;;;;4990042;28;20563;-76
2020/12/22 10:40:42;;;;;;;1.42;0.95;;;13.00;99.90;;;;;;4989349;28;20222;-76
2020/12/22 10:43:09;;;;;;;0.80;0.70;;;13.00;99.90;;;;;;4990358;28;20227;-76
2020/12/22 10:45:36;;;;;;;0.80;0.80;;;13.00;99.90;;;;;;4989625;28;20202;-76
2020/12/22 10:48:02;;;;;;;4.40;1.10;;;12.90;99.90;;;;;;4990461;28;20215;-73
2020/12/22 10:50:30;;;;;;;1.10;0.70;;;12.90;99.90;;;;;;4990141;28;20207;-75
2020/12/22 10:52:56;;;;;;;1.00;0.90;;;12.90;99.90;;;;;;4989757;28;20234;-75
2020/12/22 10:55:23;;;;;;;0.80;0.70;;;12.90;99.90;;;;;;4974742;28;20320;-74
2020/12/22 10:57:50;;;;;;;0.85;0.80;;;12.80;99.90;;;;;;4977277;28;20265;-79
2020/12/22 11:00:17;;;;;;;1.10;0.80;;;12.70;99.90;;;;;;4989554;28;20734;-78
2020/12/22 11:02:44;;;;;;;0.95;0.85;;;12.80;99.90;;;;;;4988889;28;20254;-78
2020/12/22 11:05:10;;;;;;;1.10;0.70;;;12.80;99.90;;;;;;4989871;28;20194;-78
2020/12/22 11:07:41;;;;;;;0.95;0.82;;;12.80;99.90;;;;;;4989758;28;20211;-78
2020/12/22 11:10:07;;;;;;;0.80;0.80;;;12.80;99.90;;;;;;4990197;28;20285;-77
2020/12/22 11:12:34;;;;;;;0.80;0.60;;;12.80;99.90;;;;;;4988886;28;20254;-76
2020/12/22 11:15:00;;;;;;;0.80;0.70;;;12.70;99.90;;;;;;4989105;28;20219;-77
2020/12/22 11:17:26;;;;;;;1.10;0.80;;;12.70;99.90;;;;;;4989434;28;20203;-76
2020/12/22 11:19:52;;;;;;;0.80;0.77;;;12.70;99.90;;;;;;4989211;28;20214;-77
2020/12/22 11:22:19;;;;;;;1.00;0.70;;;12.70;99.90;;;;;;4988471;28;20207;-77
2020/12/22 11:24:46;;;;;;;1.90;0.90;;;12.70;99.90;;;;;;4989251;28;20768;-76
2020/12/22 11:27:12;;;;;;;0.90;0.80;;;12.60;99.90;;;;;;4989194;28;20210;-77
2020/12/22 11:29:39;;;;;;;0.90;0.77;;;12.60;99.90;;;;;;4989126;28;20203;-76
2020/12/22 11:32:05;;;;;;;1.00;0.88;;;12.50;99.90;;;;;;4988959;28;20215;-77
2020/12/22 11:34:31;;;;;;;1.00;0.80;;;12.50;99.90;;;;;;4989256;28;20231;-77
2020/12/22 11:36:57;;;;;;;1.80;0.90;;;12.50;99.90;;;;;;4989256;28;20219;-76
2020/12/22 11:39:23;;;;;;;0.85;0.70;;;12.50;99.90;;;;;;4988902;28;20202;-77
2020/12/22 11:41:50;;;;;;;0.90;0.80;;;12.60;99.90;;;;;;4989438;28;20277;-77
2020/12/22 11:44:17;;;;;;;0.88;0.80;;;12.50;99.90;;;;;;4989299;28;20227;-76
2020/12/22 11:46:45;;;;;;;1.00;0.90;;;12.60;99.90;;;;;;4988748;28;20210;-75
2020/12/22 11:49:12;;;;;;;1.45;0.98;;;12.60;99.90;;;;;;4988621;28;20214;-76
2020/12/22 11:51:39;;;;;;;1.10;0.95;;;12.60;99.90;;;;;;4987733;28;20921;-76
2020/12/22 11:54:05;;;;;;;1.02;0.70;;;12.60;99.90;;;;;;4989158;28;20253;-77
2020/12/22 11:56:32;;;;;;;1.15;0.80;;;12.60;99.90;;;;;;4989358;28;20227;-77
2020/12/22 11:58:59;;;;;;;0.90;0.80;;;12.60;99.90;;;;;;4985192;28;20195;-76
2020/12/22 12:01:29;;;;;;;0.90;0.77;;;12.70;99.90;;;;;;4976484;28;20204;-76
2020/12/22 12:03:56;;;;;;;1.25;0.88;;;12.70;99.90;;;;;;4968759;28;20347;-77
2020/12/22 12:06:23;;;;;;;0.95;0.77;;;12.70;99.90;;;;;;4969897;28;20263;-75
2020/12/22 12:08:49;;;;;;;0.90;0.70;;;12.70;99.90;;;;;;4969263;28;20246;-76
2020/12/22 12:11:16;;;;;;;1.00;0.90;;;12.60;99.90;;;;;;4969533;28;20584;-76
2020/12/22 12:13:42;;;;;;;1.00;0.80;;;12.60;99.90;;;;;;4968624;28;20223;-76
2020/12/22 12:16:09;;;;;;;1.00;0.80;;;12.70;99.90;;;;;;4969096;28;20246;-77
2020/12/22 12:18:36;;;;;;;1.00;0.80;;;12.70;99.90;;;;;;4988458;28;20587;-76
2020/12/22 12:21:03;;;;;;;1.30;0.80;;;12.80;99.90;;;;;;4988738;28;20210;-76
2020/12/22 12:23:29;;;;;;;1.00;0.85;;;12.80;99.90;;;;;;4988233;28;20238;-76
2020/12/22 12:25:56;;;;;;;1.15;0.80;;;12.80;99.90;;;;;;4988591;28;20667;-76
2020/12/22 12:28:22;;;;;;;1.55;1.23;;;12.90;99.90;;;;;;4988780;28;20212;-76
2020/12/22 12:30:49;;;;;;;0.95;0.80;;;12.90;99.90;;;;;;4988166;28;20269;-76
2020/12/22 12:33:16;;;;;;;0.90;0.80;;;12.90;99.90;;;;;;4988245;28;20235;-76
2020/12/22 12:35:42;;;;;;;0.80;0.70;;;12.90;99.90;;;;;;4988287;28;20293;-76
2020/12/22 12:38:08;;;;;;;1.00;0.80;;;12.90;99.90;;;;;;4988765;28;20262;-76
2020/12/22 12:40:34;;;;;;;2.30;0.77;;;12.90;99.90;;;;;;4987960;28;20678;-76
2020/12/22 12:43:02;;;;;;;0.80;0.70;;;12.90;99.90;;;;;;4988305;28;20261;-77
2020/12/22 12:45:28;;;;;;;0.80;0.70;;;12.90;99.90;;;;;;4988311;28;20294;-76
2020/12/22 12:47:54;;;;;;;0.88;0.73;;;12.90;99.90;;;;;;4998390;23;20277;-73
2020/12/22 12:50:21;;;;;;;0.80;0.70;;;12.90;99.90;;;;;;4994106;28;20234;-72
2020/12/22 12:52:48;;;;;;;0.90;0.70;;;12.90;99.90;;;;;;4990718;28;20223;-72